createdAt,value
2023-01-21T02:09:36.688Z,1.65
2023-01-21T02:10:39.685Z,1.90
2023-01-21T02:11:41.826Z,1.80
2023-01-21T02:12:45.398Z,1.67
2023-01-21T02:13:52.330Z,1.85
2023-01-21T02:14:55.388Z,1.60
2023-01-21T02:16:09.878Z,1.95
2023-01-21T02:17:38.609Z,1.90
2023-01-21T02:18:49.876Z,1.83
2023-01-21T02:20:28.608Z,1.70
2023-01-21T02:21:54.135Z,1.77
2023-01-21T02:23:04.772Z,1.75
2023-01-21T02:24:57.982Z,1.90
2023-01-21T02:26:24.739Z,2.20
2023-01-21T02:27:58.705Z,1.88
2023-01-21T02:29:24.210Z,1.95
2023-01-21T02:30:42.444Z,1.90
2023-01-21T02:32:04.224Z,1.88
2023-01-21T02:33:36.047Z,1.65
2023-01-21T02:34:43.729Z,1.88
2023-01-21T02:35:52.429Z,1.92
2023-01-21T02:37:06.168Z,1.65
2023-01-21T02:38:17.585Z,1.65
2023-01-21T02:39:30.034Z,1.60
2023-01-21T02:40:39.352Z,1.80
2023-01-21T02:41:56.141Z,1.85
2023-01-21T02:43:07.656Z,1.77
2023-01-21T02:44:14.909Z,1.80
2023-01-21T02:45:30.502Z,1.60
2023-01-21T02:46:44.072Z,1.80
2023-01-21T02:47:53.634Z,1.77
2023-01-21T02:49:00.394Z,1.80
2023-01-21T02:50:09.123Z,1.75
2023-01-21T02:51:12.596Z,1.40
2023-01-21T02:52:20.269Z,1.50
2023-01-21T02:53:25.698Z,1.65
2023-01-21T02:54:55.291Z,1.70
2023-01-21T02:56:01.586Z,1.80
2023-01-21T02:57:05.343Z,1.50
2023-01-21T02:58:12.869Z,1.50
2023-01-21T02:59:15.142Z,1.60
2023-01-21T03:00:28.270Z,1.70
2023-01-21T03:01:41.918Z,1.80
2023-01-21T03:03:16.420Z,2.20
2023-01-21T03:04:39.356Z,1.85
2023-01-21T03:05:55.283Z,1.70
2023-01-21T03:07:07.035Z,1.67
2023-01-21T03:08:16.818Z,2.00
2023-01-21T03:09:24.149Z,1.70
2023-01-21T03:10:31.955Z,1.80
2023-01-21T03:11:35.097Z,1.70
2023-01-21T03:12:43.232Z,1.77
2023-01-21T03:14:09.376Z,1.65
2023-01-21T03:15:38.807Z,1.75
2023-01-21T03:17:00.733Z,1.90
2023-01-21T03:18:08.437Z,1.67
2023-01-21T03:19:14.553Z,1.67
2023-01-21T03:20:22.883Z,1.55
2023-01-21T03:21:27.966Z,1.80
2023-01-21T03:22:33.850Z,2.00
2023-01-21T03:23:39.692Z,1.77
2023-01-21T03:24:45.694Z,1.65
2023-01-21T03:25:50.050Z,2.15
2023-01-21T03:26:57.168Z,1.50
2023-01-21T03:28:02.559Z,1.85
2023-01-21T03:29:12.032Z,1.75
2023-01-21T03:30:17.302Z,1.60
2023-01-21T03:31:25.085Z,1.70
2023-01-21T03:32:31.202Z,1.85
2023-01-21T03:33:36.984Z,1.70
2023-01-21T03:34:42.184Z,1.60
2023-01-21T03:35:50.455Z,1.52
2023-01-21T03:36:57.819Z,1.70
2023-01-21T03:38:07.689Z,2.00
2023-01-21T03:39:14.752Z,1.70
2023-01-21T03:40:22.921Z,1.73
2023-01-21T03:41:33.495Z,1.83
2023-01-21T03:42:36.877Z,1.77
2023-01-21T03:43:39.697Z,1.60
2023-01-21T03:44:43.322Z,1.70
2023-01-21T03:45:51.031Z,1.80
2023-01-21T03:47:02.685Z,1.60
2023-01-21T03:48:14.376Z,1.65
2023-01-21T03:49:20.512Z,1.67
2023-01-21T03:50:27.078Z,1.73
2023-01-21T03:51:37.237Z,1.55
2023-01-21T03:52:40.501Z,1.75
2023-01-21T03:53:44.008Z,1.70
2023-01-21T03:54:48.071Z,1.80
2023-01-21T03:55:52.175Z,1.65
2023-01-21T03:56:54.220Z,1.65
2023-01-21T03:57:57.265Z,1.60
2023-01-21T03:58:59.443Z,1.67
2023-01-21T04:00:02.652Z,1.65
2023-01-21T04:01:06.768Z,1.90
2023-01-21T04:02:09.958Z,1.70
2023-01-21T04:03:12.230Z,1.80
2023-01-21T04:04:15.229Z,2.00
2023-01-21T04:05:17.514Z,1.85
2023-01-21T04:06:22.308Z,1.83
2023-01-21T04:07:25.782Z,1.80
2023-01-21T04:08:28.941Z,1.85
2023-01-21T04:09:31.077Z,1.67
2023-01-21T04:10:34.097Z,1.65
2023-01-21T04:11:36.143Z,1.60
2023-01-21T04:12:40.571Z,2.15
2023-01-21T04:13:43.029Z,1.42
2023-01-21T04:14:46.073Z,1.60
2023-01-21T04:15:48.253Z,1.67
2023-01-21T04:16:51.339Z,1.85
2023-01-21T04:17:53.404Z,1.60
2023-01-21T04:18:56.440Z,1.70
2023-01-21T04:19:58.486Z,1.75
2023-01-21T04:21:01.871Z,1.75
2023-01-21T04:22:04.955Z,1.75
2023-01-21T04:23:08.346Z,1.83
2023-01-21T04:24:11.555Z,1.80
2023-01-21T04:25:13.742Z,1.60
2023-01-21T04:26:17.195Z,1.85
2023-01-21T04:27:19.316Z,1.75
2023-01-21T04:28:22.432Z,2.17
2023-01-21T04:29:24.509Z,1.65
2023-01-21T04:30:27.484Z,1.85
2023-01-21T04:31:29.523Z,1.60
2023-01-21T04:32:33.523Z,1.40
2023-01-21T04:33:35.545Z,1.70
2023-01-21T04:34:38.588Z,1.63
2023-01-21T04:35:40.589Z,1.85
2023-01-21T04:36:43.638Z,1.60
2023-01-21T04:37:45.675Z,1.80
2023-01-21T04:38:50.992Z,1.60
2023-01-21T04:39:53.033Z,1.77
2023-01-21T04:40:56.054Z,1.75
2023-01-21T04:41:59.065Z,1.77
2023-01-21T04:43:01.227Z,1.45
2023-01-21T04:44:04.277Z,1.55
2023-01-21T04:45:08.000Z,1.55
2023-01-21T04:46:11.024Z,1.95
2023-01-21T04:47:13.126Z,1.80
2023-01-21T04:48:16.207Z,1.73
2023-01-21T04:49:18.205Z,1.60
2023-01-21T04:50:21.276Z,1.77
2023-01-21T04:51:23.405Z,1.67
2023-01-21T04:52:26.468Z,1.63
2023-01-21T04:53:28.509Z,1.90
2023-01-21T04:54:32.885Z,1.65
2023-01-21T04:55:35.031Z,1.77
2023-01-21T04:56:38.193Z,1.50
2023-01-21T04:57:40.273Z,1.90
2023-01-21T04:58:43.284Z,1.60
2023-01-21T04:59:45.434Z,1.50
2023-01-21T05:00:48.562Z,1.85
2023-01-21T05:01:50.684Z,1.73
2023-01-21T05:02:53.743Z,1.60
2023-01-21T05:03:55.989Z,1.63
2023-01-21T05:04:59.102Z,1.90
2023-01-21T05:06:01.224Z,1.77
2023-01-21T05:07:04.300Z,1.65
2023-01-21T05:08:06.833Z,1.60
2023-01-21T05:09:09.810Z,1.77
2023-01-21T05:10:17.917Z,1.50
2023-01-21T05:11:21.510Z,1.90
2023-01-21T05:12:23.598Z,1.70
2023-01-21T05:13:26.688Z,1.70
2023-01-21T05:14:28.819Z,2.00
2023-01-21T05:15:32.876Z,1.70
2023-01-21T05:16:35.338Z,1.70
2023-01-21T05:17:38.432Z,1.65
2023-01-21T05:18:40.905Z,1.80
2023-01-21T05:19:43.992Z,1.83
2023-01-21T05:20:46.248Z,1.90
2023-01-21T05:21:49.638Z,1.70
2023-01-21T05:22:51.839Z,1.70
2023-01-21T05:23:55.260Z,1.77
2023-01-21T05:24:57.556Z,1.70
2023-01-21T05:26:02.054Z,2.00
2023-01-21T05:27:04.180Z,1.70
2023-01-21T05:28:07.203Z,1.80
2023-01-21T05:29:09.419Z,2.10
2023-01-21T05:30:13.011Z,2.10
2023-01-21T05:31:15.121Z,1.60
2023-01-21T05:32:18.145Z,1.85
2023-01-21T05:33:26.038Z,2.13
2023-01-21T05:34:29.128Z,1.60
2023-01-21T05:35:31.192Z,1.85
2023-01-21T05:36:34.264Z,2.13
2023-01-21T05:37:36.324Z,1.80
2023-01-21T05:38:39.515Z,2.15
2023-01-21T05:39:41.559Z,1.65
2023-01-21T05:40:44.522Z,1.90
2023-01-21T05:41:48.064Z,1.80
2023-01-21T05:42:51.084Z,2.03
2023-01-21T05:43:53.217Z,1.73
2023-01-21T05:44:56.672Z,2.25
2023-01-21T05:45:58.890Z,1.88
2023-01-21T05:47:02.043Z,1.70
2023-01-21T05:48:04.586Z,1.73
2023-01-21T05:49:07.741Z,1.83
2023-01-21T05:50:11.027Z,1.63
2023-01-21T05:51:14.189Z,1.70
2023-01-21T05:52:16.220Z,1.70
2023-01-21T05:53:19.697Z,1.85
2023-01-21T05:54:21.827Z,1.80
2023-01-21T05:55:24.853Z,1.70
2023-01-21T05:56:27.093Z,1.67
2023-01-21T05:57:32.155Z,1.67
2023-01-21T05:58:34.270Z,1.70
2023-01-21T05:59:37.487Z,1.67
2023-01-21T06:00:41.820Z,1.63
2023-01-21T06:01:44.816Z,1.90
2023-01-21T06:02:47.714Z,1.90
2023-01-21T06:03:50.886Z,1.90
2023-01-21T06:04:52.962Z,1.60
2023-01-21T06:05:56.141Z,1.48
2023-01-21T06:06:58.258Z,1.88
2023-01-21T06:08:01.248Z,1.60
2023-01-21T06:09:03.655Z,1.80
2023-01-21T06:10:08.005Z,1.60
2023-01-21T06:11:10.158Z,1.48
2023-01-21T06:12:13.206Z,1.70
2023-01-21T06:13:16.869Z,1.75
2023-01-21T06:14:19.999Z,1.70
2023-01-21T06:15:22.096Z,1.70
2023-01-21T06:16:25.162Z,1.80
2023-01-21T06:17:27.379Z,1.90
2023-01-21T06:19:32.806Z,1.63
2023-01-21T06:20:36.923Z,1.67
2023-01-21T06:21:39.154Z,1.55
2023-01-21T06:22:42.170Z,2.10
2023-01-21T06:23:44.233Z,1.75
2023-01-21T06:24:47.413Z,1.70
2023-01-21T06:25:50.490Z,1.70
2023-01-21T06:26:53.245Z,1.80
2023-01-21T06:30:02.995Z,1.70
2023-01-21T06:31:05.535Z,1.90
2023-01-21T06:32:08.764Z,1.90
2023-01-21T06:33:10.851Z,2.15
2023-01-21T06:34:13.916Z,1.77
2023-01-21T06:35:16.330Z,2.00
2023-01-21T06:36:19.606Z,2.15
2023-01-21T06:37:22.585Z,2.00
2023-01-21T06:38:24.638Z,1.88
2023-01-21T06:39:27.651Z,1.98
2023-01-21T06:40:29.749Z,2.42
2023-01-21T06:41:32.797Z,1.80
2023-01-21T06:42:34.939Z,2.20
2023-01-21T06:43:38.008Z,2.10
2023-01-21T06:44:41.524Z,1.88
2023-01-21T06:45:44.550Z,2.00
2023-01-21T06:47:00.192Z,1.88
2023-01-21T06:48:03.906Z,2.10
2023-01-21T06:49:06.165Z,2.00
2023-01-21T06:50:10.992Z,1.88
2023-01-21T06:51:13.016Z,1.60
2023-01-21T06:52:16.089Z,1.63
2023-01-21T06:53:18.187Z,2.00
2023-01-21T06:54:21.356Z,1.80
2023-01-21T06:55:23.449Z,1.95
2023-01-21T06:56:26.571Z,2.13
2023-01-21T06:57:28.728Z,1.90
2023-01-21T06:58:31.733Z,1.80
2023-01-21T06:59:33.761Z,1.83
2023-01-21T07:00:38.164Z,1.90
2023-01-21T07:01:40.245Z,1.90
2023-01-21T07:02:43.377Z,1.88
2023-01-21T07:03:45.453Z,1.80
2023-01-21T07:04:50.849Z,2.05
2023-01-21T07:05:52.933Z,2.10
2023-01-21T07:06:56.069Z,2.00
2023-01-21T07:07:58.264Z,2.05
2023-01-21T07:09:01.431Z,2.28
2023-01-21T07:10:04.929Z,2.30
2023-01-21T07:11:07.271Z,2.03
2023-01-21T07:12:10.515Z,1.95
2023-01-21T07:13:12.598Z,2.22
2023-01-21T07:14:15.578Z,2.00
2023-01-21T07:15:18.159Z,2.00
2023-01-21T07:16:22.824Z,2.20
2023-01-21T07:17:25.080Z,2.30
2023-01-21T07:18:28.263Z,1.83
2023-01-21T07:19:30.347Z,1.92
2023-01-21T07:20:33.359Z,2.08
2023-01-21T07:21:35.505Z,2.30
2023-01-21T07:22:38.923Z,1.90
2023-01-21T07:23:41.108Z,1.90
2023-01-21T07:24:44.180Z,2.05
2023-01-21T07:25:46.229Z,2.00
2023-01-21T07:26:49.310Z,2.33
2023-01-21T07:27:51.431Z,2.05
2023-01-21T07:28:54.441Z,2.22
2023-01-21T07:29:56.487Z,2.08
2023-01-21T07:31:00.628Z,2.00
2023-01-21T07:32:04.506Z,2.33
2023-01-21T07:33:08.087Z,2.10
2023-01-21T11:33:25.043Z,4.03
2023-01-21T11:34:28.788Z,4.22
2023-01-21T11:35:30.986Z,4.60
2023-01-21T11:36:34.479Z,4.47
2023-01-21T11:37:39.239Z,4.93
2023-01-21T11:38:41.693Z,4.70
2023-01-21T11:39:52.142Z,4.40
2023-01-21T11:41:05.185Z,5.60
2023-01-21T11:42:14.546Z,4.63
2023-01-21T11:43:34.872Z,4.85
2023-01-21T11:44:52.668Z,4.97
2023-01-21T11:45:57.100Z,4.37
2023-01-21T11:47:00.299Z,4.60
2023-01-21T11:48:13.916Z,4.57
2023-01-21T11:49:29.876Z,4.70
2023-01-21T11:50:35.740Z,4.63
2023-01-21T11:51:39.727Z,4.63
2023-01-21T11:52:42.901Z,4.30
2023-01-21T11:53:46.703Z,5.50
2023-01-21T11:54:49.918Z,4.72
2023-01-21T11:55:53.619Z,4.78
2023-01-21T11:56:59.156Z,4.40
2023-01-21T11:58:01.289Z,4.20
2023-01-21T11:59:14.352Z,4.75
2023-01-21T12:00:20.432Z,4.45
2023-01-21T12:01:23.730Z,5.03
2023-01-21T12:02:30.773Z,4.18
2023-01-21T12:03:36.458Z,4.80
2023-01-21T12:04:44.412Z,5.13
2023-01-21T12:05:49.574Z,4.40
2023-01-21T12:06:57.865Z,4.55
2023-01-21T18:47:24.758Z,12.85
2023-01-21T18:48:30.330Z,14.23
2023-01-21T18:49:33.343Z,14.73
2023-01-21T18:50:35.385Z,14.10
2023-01-21T18:51:38.398Z,14.73
2023-01-21T18:52:40.430Z,15.27
2023-01-21T18:53:43.433Z,14.82
2023-01-21T18:54:45.754Z,14.57
2023-01-21T18:55:53.609Z,14.43
2023-01-21T18:56:56.795Z,14.40
2023-01-21T18:58:02.424Z,14.25
2023-01-21T18:59:12.502Z,15.18
2023-01-21T19:00:22.488Z,15.07
2023-01-21T19:01:25.713Z,14.73
2023-01-21T19:02:27.993Z,14.25
2023-01-21T19:03:31.082Z,14.50
2023-01-21T19:04:33.357Z,14.10
2023-01-21T19:05:38.829Z,14.23
2023-01-21T19:06:41.134Z,14.50
2023-01-21T19:07:44.656Z,13.57
2023-01-21T19:08:48.586Z,13.55
2023-01-21T19:09:51.753Z,14.18
2023-01-21T19:10:54.183Z,14.73
2023-01-21T19:11:57.222Z,14.57
2023-01-21T19:13:00.644Z,14.73
2023-01-21T19:14:04.691Z,14.05
2023-01-21T19:15:10.417Z,14.45
2023-01-21T19:16:17.126Z,14.80
2023-01-21T19:17:25.709Z,15.05
2023-01-21T19:18:28.803Z,14.20
2023-01-21T19:19:30.938Z,14.07
2023-01-21T19:20:34.112Z,16.02
2023-01-21T19:21:37.114Z,14.10
2023-01-21T19:22:39.307Z,13.15
2023-01-21T19:23:42.543Z,13.15
2023-01-21T19:24:44.597Z,13.00
2023-01-21T19:25:54.937Z,13.15
2023-01-21T19:26:57.103Z,13.85
2023-01-21T19:28:02.069Z,15.02
2023-01-21T19:29:05.311Z,13.98
2023-01-21T19:30:23.402Z,12.70
2023-01-21T19:31:26.827Z,14.05
2023-01-21T19:32:28.997Z,13.27
2023-01-21T19:33:32.048Z,12.82
2023-01-21T19:34:34.091Z,13.43
2023-01-21T19:35:39.374Z,14.05
2023-01-21T19:36:42.394Z,15.20
2023-01-21T19:37:49.177Z,14.88
2023-01-21T19:38:56.573Z,14.13
2023-01-21T19:39:59.595Z,14.45
2023-01-21T19:41:04.489Z,13.70
2023-01-21T19:42:08.623Z,15.07
2023-01-21T19:43:15.784Z,13.63
2023-01-21T19:44:18.787Z,14.60
2023-01-21T19:45:21.460Z,13.98
2023-01-21T19:46:28.752Z,14.38
2023-01-21T19:47:32.270Z,14.98
2023-01-21T19:48:34.329Z,14.95
2023-01-21T19:49:37.329Z,14.02
2023-01-21T19:50:39.893Z,14.63
2023-01-21T19:51:43.388Z,15.32
2023-01-21T19:52:46.366Z,15.93
2023-01-21T19:53:49.481Z,14.77
2023-01-21T19:54:53.998Z,14.25
2023-01-21T19:55:58.812Z,15.88
2023-01-21T19:57:01.806Z,15.25
2023-01-21T19:58:10.029Z,14.55
2023-01-21T19:59:16.220Z,14.43
2023-01-21T20:00:22.076Z,13.23
2023-01-21T20:01:25.160Z,13.82
2023-01-21T20:02:27.975Z,15.10
2023-01-21T20:03:30.984Z,14.20
2023-01-21T20:04:33.027Z,14.80
2023-01-21T20:05:36.215Z,15.00
2023-01-21T20:06:41.897Z,13.60
2023-01-21T20:07:44.823Z,13.93
2023-01-21T20:08:47.906Z,15.52
2023-01-21T20:09:49.941Z,14.57
2023-01-21T20:10:53.015Z,13.70
2023-01-21T20:11:55.098Z,15.18
2023-01-21T20:12:58.613Z,14.43
2023-01-21T20:14:00.794Z,15.27
2023-01-21T20:15:05.964Z,14.70
2023-01-21T20:17:18.006Z,15.32
2023-01-21T20:18:24.515Z,15.98
2023-01-21T20:19:26.611Z,15.85
2023-01-21T20:20:31.936Z,13.77
2023-01-21T20:21:40.087Z,16.05
2023-01-21T20:22:43.212Z,15.20
2023-01-21T20:23:46.374Z,14.07
2023-01-21T20:24:48.412Z,15.35
2023-01-21T20:25:54.346Z,13.73
2023-01-21T20:26:57.394Z,14.10
2023-01-21T20:28:01.170Z,13.90
2023-01-21T20:29:06.553Z,14.10
2023-01-21T20:30:17.286Z,14.90
2023-01-21T20:31:19.465Z,13.70
2023-01-21T20:32:22.611Z,13.10
2023-01-21T20:33:26.683Z,13.07
2023-01-21T20:34:31.379Z,13.95
2023-01-21T20:35:34.520Z,13.77
2023-01-21T20:36:38.881Z,15.48
2023-01-21T20:37:41.173Z,13.60
2023-01-21T20:38:44.156Z,13.10
2023-01-21T20:39:47.227Z,14.00
2023-01-21T20:40:49.312Z,12.45
2023-01-21T20:41:52.411Z,13.82
2023-01-21T20:42:55.916Z,14.18
2023-01-21T20:43:59.021Z,13.38
2023-01-21T20:45:02.103Z,13.43
2023-01-21T20:46:11.524Z,13.77
2023-01-21T20:47:14.619Z,13.18
2023-01-21T20:48:20.605Z,13.32
2023-01-21T20:49:22.648Z,12.32
2023-01-21T20:50:27.896Z,13.43
2023-01-21T20:51:31.136Z,13.50
2023-01-21T20:52:33.194Z,13.73
2023-01-21T20:53:36.845Z,12.65
2023-01-21T20:54:40.306Z,13.10
2023-01-21T20:55:45.254Z,12.23
2023-01-21T20:56:48.390Z,12.85
2023-01-21T20:57:50.455Z,13.10
2023-01-21T20:58:53.542Z,12.05
2023-01-21T20:59:55.682Z,12.45
2023-01-21T21:00:58.973Z,12.65
2023-01-21T21:02:02.415Z,12.65
2023-01-21T21:03:05.432Z,12.10
2023-01-21T21:04:08.649Z,11.63
2023-01-21T21:05:11.664Z,13.10
2023-01-21T21:06:15.964Z,11.50
2023-01-21T21:07:18.213Z,13.23
2023-01-21T21:08:22.748Z,12.57
2023-01-21T21:09:25.791Z,12.93
2023-01-21T21:10:29.478Z,12.73
2023-01-21T21:11:32.580Z,12.43
2023-01-21T21:12:34.671Z,12.57
2023-01-21T21:13:37.931Z,13.57
2023-01-21T21:14:39.939Z,12.80
2023-01-21T21:15:46.419Z,12.52
2023-01-21T21:16:49.384Z,13.15
2023-01-21T21:17:53.876Z,13.60
2023-01-21T21:18:57.156Z,12.65
2023-01-21T21:19:59.721Z,12.50
